sensor_id;sensor_type;location;lat;lon;timestamp;temperature;humidity
76168;DHT22;64927;48.214;16.378;2023-06-24T00:02:17;20.80;58.00
76168;DHT22;64927;48.214;16.378;2023-06-24T00:04:42;20.80;58.00
76168;DHT22;64927;48.214;16.378;2023-06-24T00:07:08;20.60;58.30
76168;DHT22;64927;48.214;16.378;2023-06-24T00:09:34;20.60;58.30
76168;DHT22;64927;48.214;16.378;2023-06-24T00:11:59;20.60;58.50
76168;DHT22;64927;48.214;16.378;2023-06-24T00:14:26;20.70;59.30
76168;DHT22;64927;48.214;16.378;2023-06-24T00:16:55;20.60;58.10
76168;DHT22;64927;48.214;16.378;2023-06-24T00:19:25;20.70;58.60
76168;DHT22;64927;48.214;16.378;2023-06-24T00:21:52;20.60;58.40
76168;DHT22;64927;48.214;16.378;2023-06-24T00:24:22;20.50;58.50
76168;DHT22;64927;48.214;16.378;2023-06-24T00:26:54;20.50;58.50
76168;DHT22;64927;48.214;16.378;2023-06-24T00:29:20;20.50;58.50
76168;DHT22;64927;48.214;16.378;2023-06-24T00:31:46;20.50;58.60
76168;DHT22;64927;48.214;16.378;2023-06-24T00:34:12;20.40;59.90
76168;DHT22;64927;48.214;16.378;2023-06-24T00:36:37;20.40;58.90
76168;DHT22;64927;48.214;16.378;2023-06-24T00:39:04;20.40;59.10
76168;DHT22;64927;48.214;16.378;2023-06-24T00:41:34;20.40;59.20
76168;DHT22;64927;48.214;16.378;2023-06-24T00:44:00;20.50;59.20
76168;DHT22;64927;48.214;16.378;2023-06-24T00:46:27;20.50;58.90
76168;DHT22;64927;48.214;16.378;2023-06-24T00:48:56;20.50;59.30
76168;DHT22;64927;48.214;16.378;2023-06-24T00:51:22;20.40;59.20
76168;DHT22;64927;48.214;16.378;2023-06-24T00:53:59;20.50;59.40
76168;DHT22;64927;48.214;16.378;2023-06-24T00:56:28;20.50;59.20
76168;DHT22;64927;48.214;16.378;2023-06-24T00:58:56;20.50;59.10
76168;DHT22;64927;48.214;16.378;2023-06-24T01:01:25;20.50;59.40
76168;DHT22;64927;48.214;16.378;2023-06-24T01:03:51;20.40;59.30
76168;DHT22;64927;48.214;16.378;2023-06-24T01:06:17;20.40;59.50
76168;DHT22;64927;48.214;16.378;2023-06-24T01:08:43;20.40;59.40
76168;DHT22;64927;48.214;16.378;2023-06-24T01:11:08;20.50;60.00
76168;DHT22;64927;48.214;16.378;2023-06-24T01:13:34;20.40;59.90
76168;DHT22;64927;48.214;16.378;2023-06-24T01:16:08;20.50;59.40
76168;DHT22;64927;48.214;16.378;2023-06-24T01:18:44;20.50;59.40
76168;DHT22;64927;48.214;16.378;2023-06-24T01:21:26;20.50;60.00
76168;DHT22;64927;48.214;16.378;2023-06-24T01:32:31;20.40;60.40
76168;DHT22;64927;48.214;16.378;2023-06-24T01:35:08;20.40;60.80
76168;DHT22;64927;48.214;16.378;2023-06-24T01:37:48;20.40;60.60
76168;DHT22;64927;48.214;16.378;2023-06-24T01:40:28;20.30;60.50
76168;DHT22;64927;48.214;16.378;2023-06-24T01:43:01;20.30;60.90
76168;DHT22;64927;48.214;16.378;2023-06-24T01:45:31;20.40;60.70
76168;DHT22;64927;48.214;16.378;2023-06-24T01:48:02;20.50;60.70
76168;DHT22;64927;48.214;16.378;2023-06-24T01:50:31;20.40;60.60
76168;DHT22;64927;48.214;16.378;2023-06-24T01:52:58;20.40;60.30
76168;DHT22;64927;48.214;16.378;2023-06-24T01:55:28;20.40;60.40
76168;DHT22;64927;48.214;16.378;2023-06-24T01:57:57;20.50;60.30
76168;DHT22;64927;48.214;16.378;2023-06-24T02:00:24;20.50;60.50
76168;DHT22;64927;48.214;16.378;2023-06-24T02:02:50;20.40;60.60
76168;DHT22;64927;48.214;16.378;2023-06-24T02:05:20;20.40;60.90
76168;DHT22;64927;48.214;16.378;2023-06-24T02:07:48;20.50;60.70
76168;DHT22;64927;48.214;16.378;2023-06-24T02:10:15;20.50;60.40
76168;DHT22;64927;48.214;16.378;2023-06-24T02:12:44;20.50;60.60
76168;DHT22;64927;48.214;16.378;2023-06-24T02:15:10;20.40;61.50
76168;DHT22;64927;48.214;16.378;2023-06-24T02:17:37;20.40;61.20
76168;DHT22;64927;48.214;16.378;2023-06-24T02:20:06;20.40;61.20
76168;DHT22;64927;48.214;16.378;2023-06-24T02:22:32;20.40;61.20
76168;DHT22;64927;48.214;16.378;2023-06-24T02:24:58;20.30;61.30
76168;DHT22;64927;48.214;16.378;2023-06-24T02:27:24;20.40;61.40
76168;DHT22;64927;48.214;16.378;2023-06-24T02:29:51;20.30;61.40
76168;DHT22;64927;48.214;16.378;2023-06-24T02:32:20;20.30;61.80
76168;DHT22;64927;48.214;16.378;2023-06-24T02:34:46;20.30;62.10
76168;DHT22;64927;48.214;16.378;2023-06-24T02:37:12;20.20;62.20
76168;DHT22;64927;48.214;16.378;2023-06-24T02:39:37;20.10;62.60
76168;DHT22;64927;48.214;16.378;2023-06-24T02:42:12;20.10;62.80
76168;DHT22;64927;48.214;16.378;2023-06-24T02:44:39;20.00;62.90
76168;DHT22;64927;48.214;16.378;2023-06-24T02:47:09;20.10;63.10
76168;DHT22;64927;48.214;16.378;2023-06-24T02:49:37;20.00;63.10
76168;DHT22;64927;48.214;16.378;2023-06-24T02:52:05;20.10;63.30
76168;DHT22;64927;48.214;16.378;2023-06-24T02:54:31;20.10;63.20
76168;DHT22;64927;48.214;16.378;2023-06-24T02:56:58;20.00;63.30
76168;DHT22;64927;48.214;16.378;2023-06-24T02:59:24;20.10;63.40
76168;DHT22;64927;48.214;16.378;2023-06-24T03:01:51;20.10;63.20
76168;DHT22;64927;48.214;16.378;2023-06-24T03:04:20;20.10;63.10
76168;DHT22;64927;48.214;16.378;2023-06-24T03:06:46;20.10;63.20
76168;DHT22;64927;48.214;16.378;2023-06-24T03:09:14;20.00;63.40
76168;DHT22;64927;48.214;16.378;2023-06-24T03:11:44;20.00;63.80
76168;DHT22;64927;48.214;16.378;2023-06-24T03:14:12;19.90;64.00
76168;DHT22;64927;48.214;16.378;2023-06-24T03:16:41;20.00;64.10
76168;DHT22;64927;48.214;16.378;2023-06-24T03:19:07;19.90;64.30
76168;DHT22;64927;48.214;16.378;2023-06-24T03:21:33;20.00;64.30
76168;DHT22;64927;48.214;16.378;2023-06-24T03:23:59;20.00;65.10
76168;DHT22;64927;48.214;16.378;2023-06-24T03:26:32;19.90;65.00
76168;DHT22;64927;48.214;16.378;2023-06-24T03:29:01;19.90;64.50
76168;DHT22;64927;48.214;16.378;2023-06-24T03:31:27;19.90;64.90
76168;DHT22;64927;48.214;16.378;2023-06-24T03:33:52;19.90;64.90
76168;DHT22;64927;48.214;16.378;2023-06-24T03:36:18;19.90;64.90
76168;DHT22;64927;48.214;16.378;2023-06-24T03:38:46;19.90;64.80
76168;DHT22;64927;48.214;16.378;2023-06-24T03:41:11;19.90;65.70
76168;DHT22;64927;48.214;16.378;2023-06-24T03:43:37;19.90;64.90
76168;DHT22;64927;48.214;16.378;2023-06-24T03:46:03;19.70;65.30
76168;DHT22;64927;48.214;16.378;2023-06-24T03:48:28;19.80;65.50
76168;DHT22;64927;48.214;16.378;2023-06-24T03:50:54;19.80;65.50
76168;DHT22;64927;48.214;16.378;2023-06-24T03:53:20;19.90;65.40
76168;DHT22;64927;48.214;16.378;2023-06-24T03:55:45;19.90;65.00
76168;DHT22;64927;48.214;16.378;2023-06-24T03:58:11;19.80;65.10
76168;DHT22;64927;48.214;16.378;2023-06-24T04:00:37;19.80;65.50
76168;DHT22;64927;48.214;16.378;2023-06-24T04:03:06;19.80;66.30
76168;DHT22;64927;48.214;16.378;2023-06-24T04:05:33;19.80;65.90
76168;DHT22;64927;48.214;16.378;2023-06-24T04:07:59;19.80;66.30
76168;DHT22;64927;48.214;16.378;2023-06-24T04:10:24;19.60;66.90
76168;DHT22;64927;48.214;16.378;2023-06-24T04:12:50;19.50;67.50
76168;DHT22;64927;48.214;16.378;2023-06-24T04:15:16;19.50;67.50
76168;DHT22;64927;48.214;16.378;2023-06-24T04:17:43;19.50;67.80
76168;DHT22;64927;48.214;16.378;2023-06-24T04:20:09;19.60;67.50
76168;DHT22;64927;48.214;16.378;2023-06-24T04:22:41;19.70;67.00
76168;DHT22;64927;48.214;16.378;2023-06-24T04:25:07;19.50;67.40
76168;DHT22;64927;48.214;16.378;2023-06-24T04:27:35;19.50;67.60
76168;DHT22;64927;48.214;16.378;2023-06-24T04:30:02;19.50;68.00
76168;DHT22;64927;48.214;16.378;2023-06-24T04:32:30;19.60;67.80
76168;DHT22;64927;48.214;16.378;2023-06-24T04:34:57;19.60;67.40
76168;DHT22;64927;48.214;16.378;2023-06-24T04:37:23;19.60;67.30
76168;DHT22;64927;48.214;16.378;2023-06-24T04:39:48;19.50;67.30
76168;DHT22;64927;48.214;16.378;2023-06-24T04:42:14;19.60;66.90
76168;DHT22;64927;48.214;16.378;2023-06-24T04:44:40;19.70;67.00
76168;DHT22;64927;48.214;16.378;2023-06-24T04:47:05;19.80;66.40
76168;DHT22;64927;48.214;16.378;2023-06-24T04:49:34;19.80;66.50
76168;DHT22;64927;48.214;16.378;2023-06-24T04:52:03;19.70;67.10
76168;DHT22;64927;48.214;16.378;2023-06-24T04:54:28;19.70;67.20
76168;DHT22;64927;48.214;16.378;2023-06-24T04:56:54;19.80;67.00
76168;DHT22;64927;48.214;16.378;2023-06-24T04:59:21;19.70;66.70
76168;DHT22;64927;48.214;16.378;2023-06-24T05:01:47;19.70;67.00
76168;DHT22;64927;48.214;16.378;2023-06-24T05:04:12;19.70;66.70
76168;DHT22;64927;48.214;16.378;2023-06-24T05:06:38;19.60;66.80
76168;DHT22;64927;48.214;16.378;2023-06-24T05:09:06;19.50;67.00
76168;DHT22;64927;48.214;16.378;2023-06-24T05:11:31;19.60;66.90
76168;DHT22;64927;48.214;16.378;2023-06-24T05:13:57;19.70;66.70
76168;DHT22;64927;48.214;16.378;2023-06-24T05:16:25;19.70;66.60
76168;DHT22;64927;48.214;16.378;2023-06-24T05:18:53;19.80;66.20
76168;DHT22;64927;48.214;16.378;2023-06-24T05:21:18;19.50;66.60
76168;DHT22;64927;48.214;16.378;2023-06-24T05:23:44;19.70;66.30
76168;DHT22;64927;48.214;16.378;2023-06-24T05:26:10;19.70;66.50
76168;DHT22;64927;48.214;16.378;2023-06-24T05:28:36;19.90;66.50
76168;DHT22;64927;48.214;16.378;2023-06-24T05:31:02;20.00;66.00
76168;DHT22;64927;48.214;16.378;2023-06-24T05:33:27;20.00;65.90
76168;DHT22;64927;48.214;16.378;2023-06-24T05:35:53;20.10;65.50
76168;DHT22;64927;48.214;16.378;2023-06-24T05:38:19;20.20;65.70
76168;DHT22;64927;48.214;16.378;2023-06-24T05:40:44;20.30;66.20
76168;DHT22;64927;48.214;16.378;2023-06-24T05:43:12;20.30;64.90
76168;DHT22;64927;48.214;16.378;2023-06-24T05:45:40;20.40;65.30
76168;DHT22;64927;48.214;16.378;2023-06-24T05:48:08;20.30;65.30
76168;DHT22;64927;48.214;16.378;2023-06-24T05:50:37;20.20;65.10
76168;DHT22;64927;48.214;16.378;2023-06-24T05:53:04;20.20;65.20
76168;DHT22;64927;48.214;16.378;2023-06-24T05:55:32;20.20;65.70
76168;DHT22;64927;48.214;16.378;2023-06-24T05:57:58;20.30;65.60
76168;DHT22;64927;48.214;16.378;2023-06-24T06:00:24;20.30;65.90
76168;DHT22;64927;48.214;16.378;2023-06-24T06:02:52;20.50;65.90
76168;DHT22;64927;48.214;16.378;2023-06-24T06:05:17;20.60;65.40
76168;DHT22;64927;48.214;16.378;2023-06-24T06:07:43;20.70;65.20
76168;DHT22;64927;48.214;16.378;2023-06-24T06:10:09;20.60;64.80
76168;DHT22;64927;48.214;16.378;2023-06-24T06:12:36;20.40;65.10
76168;DHT22;64927;48.214;16.378;2023-06-24T06:15:01;20.40;65.40
76168;DHT22;64927;48.214;16.378;2023-06-24T06:17:27;20.30;65.30
76168;DHT22;64927;48.214;16.378;2023-06-24T06:19:52;20.20;65.60
76168;DHT22;64927;48.214;16.378;2023-06-24T06:22:18;20.00;65.60
76168;DHT22;64927;48.214;16.378;2023-06-24T06:24:44;20.00;65.70
76168;DHT22;64927;48.214;16.378;2023-06-24T06:27:10;19.80;66.40
76168;DHT22;64927;48.214;16.378;2023-06-24T06:29:39;19.70;66.90
76168;DHT22;64927;48.214;16.378;2023-06-24T06:32:05;19.60;67.50
76168;DHT22;64927;48.214;16.378;2023-06-24T06:34:31;19.60;67.30
76168;DHT22;64927;48.214;16.378;2023-06-24T06:36:56;19.70;67.30
76168;DHT22;64927;48.214;16.378;2023-06-24T06:39:22;19.60;67.50
76168;DHT22;64927;48.214;16.378;2023-06-24T06:41:48;19.70;67.10
76168;DHT22;64927;48.214;16.378;2023-06-24T06:44:15;19.60;67.30
76168;DHT22;64927;48.214;16.378;2023-06-24T06:46:41;19.60;67.30
76168;DHT22;64927;48.214;16.378;2023-06-24T06:49:06;19.60;67.60
76168;DHT22;64927;48.214;16.378;2023-06-24T06:51:34;19.50;67.70
76168;DHT22;64927;48.214;16.378;2023-06-24T06:54:00;19.60;67.30
76168;DHT22;64927;48.214;16.378;2023-06-24T06:56:28;19.70;66.40
76168;DHT22;64927;48.214;16.378;2023-06-24T06:58:53;19.80;65.90
76168;DHT22;64927;48.214;16.378;2023-06-24T07:01:19;19.70;65.90
76168;DHT22;64927;48.214;16.378;2023-06-24T07:03:45;19.80;65.60
76168;DHT22;64927;48.214;16.378;2023-06-24T07:06:11;19.90;65.20
76168;DHT22;64927;48.214;16.378;2023-06-24T07:08:36;19.90;65.00
76168;DHT22;64927;48.214;16.378;2023-06-24T07:11:03;19.80;64.80
76168;DHT22;64927;48.214;16.378;2023-06-24T07:13:28;19.90;64.80
76168;DHT22;64927;48.214;16.378;2023-06-24T07:15:57;20.00;64.40
76168;DHT22;64927;48.214;16.378;2023-06-24T07:18:22;20.20;63.90
76168;DHT22;64927;48.214;16.378;2023-06-24T07:20:48;20.20;63.00
76168;DHT22;64927;48.214;16.378;2023-06-24T07:23:14;20.20;63.00
76168;DHT22;64927;48.214;16.378;2023-06-24T07:25:40;20.30;63.10
76168;DHT22;64927;48.214;16.378;2023-06-24T07:28:05;20.30;62.90
76168;DHT22;64927;48.214;16.378;2023-06-24T07:30:31;20.30;63.50
76168;DHT22;64927;48.214;16.378;2023-06-24T07:32:57;20.30;63.50
76168;DHT22;64927;48.214;16.378;2023-06-24T07:35:22;20.30;63.20
76168;DHT22;64927;48.214;16.378;2023-06-24T07:37:48;20.30;63.30
76168;DHT22;64927;48.214;16.378;2023-06-24T07:40:14;20.30;63.30
76168;DHT22;64927;48.214;16.378;2023-06-24T07:42:41;20.40;63.30
76168;DHT22;64927;48.214;16.378;2023-06-24T07:45:07;20.40;63.20
76168;DHT22;64927;48.214;16.378;2023-06-24T07:47:35;20.50;63.20
76168;DHT22;64927;48.214;16.378;2023-06-24T07:50:03;20.50;63.10
76168;DHT22;64927;48.214;16.378;2023-06-24T07:52:29;20.60;62.50
76168;DHT22;64927;48.214;16.378;2023-06-24T07:54:57;20.60;62.80
76168;DHT22;64927;48.214;16.378;2023-06-24T07:57:26;20.80;62.20
76168;DHT22;64927;48.214;16.378;2023-06-24T07:59:52;20.90;61.90
76168;DHT22;64927;48.214;16.378;2023-06-24T08:02:20;20.80;61.40
76168;DHT22;64927;48.214;16.378;2023-06-24T08:04:45;20.80;61.70
76168;DHT22;64927;48.214;16.378;2023-06-24T08:07:11;20.60;61.90
76168;DHT22;64927;48.214;16.378;2023-06-24T08:09:37;20.50;62.20
76168;DHT22;64927;48.214;16.378;2023-06-24T08:12:03;20.50;62.30
76168;DHT22;64927;48.214;16.378;2023-06-24T08:14:28;20.40;62.80
76168;DHT22;64927;48.214;16.378;2023-06-24T08:16:54;20.50;62.40
76168;DHT22;64927;48.214;16.378;2023-06-24T08:19:20;20.40;62.50
76168;DHT22;64927;48.214;16.378;2023-06-24T08:21:48;20.40;62.30
76168;DHT22;64927;48.214;16.378;2023-06-24T08:24:13;20.30;62.80
76168;DHT22;64927;48.214;16.378;2023-06-24T08:26:41;20.30;63.10
76168;DHT22;64927;48.214;16.378;2023-06-24T08:29:07;20.20;62.90
76168;DHT22;64927;48.214;16.378;2023-06-24T08:31:35;20.30;62.90
76168;DHT22;64927;48.214;16.378;2023-06-24T08:34:00;20.40;62.60
76168;DHT22;64927;48.214;16.378;2023-06-24T08:36:31;20.40;62.60
76168;DHT22;64927;48.214;16.378;2023-06-24T08:38:57;20.20;63.10
76168;DHT22;64927;48.214;16.378;2023-06-24T08:41:27;20.20;63.40
76168;DHT22;64927;48.214;16.378;2023-06-24T08:43:55;20.20;63.70
76168;DHT22;64927;48.214;16.378;2023-06-24T08:46:23;20.30;63.30
76168;DHT22;64927;48.214;16.378;2023-06-24T08:48:59;20.20;63.40
76168;DHT22;64927;48.214;16.378;2023-06-24T08:51:29;20.20;63.30
76168;DHT22;64927;48.214;16.378;2023-06-24T08:53:58;20.10;63.90
76168;DHT22;64927;48.214;16.378;2023-06-24T08:56:24;20.20;64.10
76168;DHT22;64927;48.214;16.378;2023-06-24T08:58:51;20.20;63.60
76168;DHT22;64927;48.214;16.378;2023-06-24T09:01:17;20.40;62.90
76168;DHT22;64927;48.214;16.378;2023-06-24T09:03:43;20.40;63.30
76168;DHT22;64927;48.214;16.378;2023-06-24T09:06:08;20.50;63.50
76168;DHT22;64927;48.214;16.378;2023-06-24T09:08:36;20.50;63.00
76168;DHT22;64927;48.214;16.378;2023-06-24T09:11:04;20.60;62.70
76168;DHT22;64927;48.214;16.378;2023-06-24T09:13:36;20.50;62.60
76168;DHT22;64927;48.214;16.378;2023-06-24T09:16:14;20.50;62.70
76168;DHT22;64927;48.214;16.378;2023-06-24T09:18:43;20.40;62.80
76168;DHT22;64927;48.214;16.378;2023-06-24T09:21:12;20.50;62.80
76168;DHT22;64927;48.214;16.378;2023-06-24T09:23:38;20.40;63.20
76168;DHT22;64927;48.214;16.378;2023-06-24T09:26:09;20.60;62.90
76168;DHT22;64927;48.214;16.378;2023-06-24T09:28:35;20.70;62.70
76168;DHT22;64927;48.214;16.378;2023-06-24T09:31:10;20.70;62.60
76168;DHT22;64927;48.214;16.378;2023-06-24T09:33:36;20.70;62.60
76168;DHT22;64927;48.214;16.378;2023-06-24T09:36:02;20.70;63.10
76168;DHT22;64927;48.214;16.378;2023-06-24T09:38:35;20.60;63.40
76168;DHT22;64927;48.214;16.378;2023-06-24T09:41:02;20.60;63.50
76168;DHT22;64927;48.214;16.378;2023-06-24T09:43:29;20.60;63.50
76168;DHT22;64927;48.214;16.378;2023-06-24T09:45:56;20.70;63.50
76168;DHT22;64927;48.214;16.378;2023-06-24T09:48:22;20.60;64.00
76168;DHT22;64927;48.214;16.378;2023-06-24T09:50:48;20.70;63.80
76168;DHT22;64927;48.214;16.378;2023-06-24T09:53:14;20.70;63.50
76168;DHT22;64927;48.214;16.378;2023-06-24T09:55:41;20.50;63.90
76168;DHT22;64927;48.214;16.378;2023-06-24T09:58:11;20.60;63.80
76168;DHT22;64927;48.214;16.378;2023-06-24T10:00:37;20.40;64.20
76168;DHT22;64927;48.214;16.378;2023-06-24T10:03:03;20.40;64.60
76168;DHT22;64927;48.214;16.378;2023-06-24T10:05:29;20.40;64.70
76168;DHT22;64927;48.214;16.378;2023-06-24T10:07:54;20.50;64.50
76168;DHT22;64927;48.214;16.378;2023-06-24T10:10:20;20.40;64.70
76168;DHT22;64927;48.214;16.378;2023-06-24T10:12:46;20.40;64.80
76168;DHT22;64927;48.214;16.378;2023-06-24T10:15:14;20.40;64.30
76168;DHT22;64927;48.214;16.378;2023-06-24T10:17:40;20.50;64.00
76168;DHT22;64927;48.214;16.378;2023-06-24T10:20:06;20.50;63.80
76168;DHT22;64927;48.214;16.378;2023-06-24T10:22:32;20.40;64.00
76168;DHT22;64927;48.214;16.378;2023-06-24T10:25:02;20.40;64.20
76168;DHT22;64927;48.214;16.378;2023-06-24T10:27:28;20.50;64.30
76168;DHT22;64927;48.214;16.378;2023-06-24T10:30:03;20.60;64.20
76168;DHT22;64927;48.214;16.378;2023-06-24T10:32:40;20.60;63.80
76168;DHT22;64927;48.214;16.378;2023-06-24T10:35:27;20.60;63.30
76168;DHT22;64927;48.214;16.378;2023-06-24T10:38:00;20.60;63.30
76168;DHT22;64927;48.214;16.378;2023-06-24T10:40:38;20.60;63.10
76168;DHT22;64927;48.214;16.378;2023-06-24T10:43:25;20.70;63.20
76168;DHT22;64927;48.214;16.378;2023-06-24T10:45:53;20.90;63.00
76168;DHT22;64927;48.214;16.378;2023-06-24T10:48:19;20.80;62.60
76168;DHT22;64927;48.214;16.378;2023-06-24T10:50:50;20.70;62.70
76168;DHT22;64927;48.214;16.378;2023-06-24T10:53:16;20.70;62.80
76168;DHT22;64927;48.214;16.378;2023-06-24T10:55:44;20.60;63.10
76168;DHT22;64927;48.214;16.378;2023-06-24T10:58:12;20.70;62.90
76168;DHT22;64927;48.214;16.378;2023-06-24T11:00:42;20.80;63.00
76168;DHT22;64927;48.214;16.378;2023-06-24T11:03:14;20.80;62.50
76168;DHT22;64927;48.214;16.378;2023-06-24T11:05:41;20.90;62.20
76168;DHT22;64927;48.214;16.378;2023-06-24T11:08:08;21.10;61.80
76168;DHT22;64927;48.214;16.378;2023-06-24T11:10:44;21.00;62.00
76168;DHT22;64927;48.214;16.378;2023-06-24T11:13:10;20.90;61.90
76168;DHT22;64927;48.214;16.378;2023-06-24T11:15:36;21.00;61.90
76168;DHT22;64927;48.214;16.378;2023-06-24T11:18:04;21.10;61.80
76168;DHT22;64927;48.214;16.378;2023-06-24T11:20:30;21.00;61.90
76168;DHT22;64927;48.214;16.378;2023-06-24T11:22:56;21.20;61.70
76168;DHT22;64927;48.214;16.378;2023-06-24T11:25:24;21.20;61.50
76168;DHT22;64927;48.214;16.378;2023-06-24T11:27:53;21.20;61.10
76168;DHT22;64927;48.214;16.378;2023-06-24T11:30:21;21.30;61.00
76168;DHT22;64927;48.214;16.378;2023-06-24T11:32:46;21.30;61.10
76168;DHT22;64927;48.214;16.378;2023-06-24T11:35:14;21.20;61.00
76168;DHT22;64927;48.214;16.378;2023-06-24T11:37:45;21.20;61.60
76168;DHT22;64927;48.214;16.378;2023-06-24T11:40:13;21.20;61.00
76168;DHT22;64927;48.214;16.378;2023-06-24T11:42:42;21.30;61.00
76168;DHT22;64927;48.214;16.378;2023-06-24T11:45:13;21.40;60.80
76168;DHT22;64927;48.214;16.378;2023-06-24T11:47:40;21.40;60.90
76168;DHT22;64927;48.214;16.378;2023-06-24T11:50:07;21.50;60.50
76168;DHT22;64927;48.214;16.378;2023-06-24T11:52:46;21.40;60.70
76168;DHT22;64927;48.214;16.378;2023-06-24T11:55:21;21.30;60.80
76168;DHT22;64927;48.214;16.378;2023-06-24T11:57:50;21.40;60.80
76168;DHT22;64927;48.214;16.378;2023-06-24T12:00:19;21.30;61.00
76168;DHT22;64927;48.214;16.378;2023-06-24T12:02:45;21.40;61.00
76168;DHT22;64927;48.214;16.378;2023-06-24T12:05:11;21.30;61.10
76168;DHT22;64927;48.214;16.378;2023-06-24T12:07:38;21.20;61.60
76168;DHT22;64927;48.214;16.378;2023-06-24T12:10:08;21.00;61.70
76168;DHT22;64927;48.214;16.378;2023-06-24T12:12:35;21.00;61.60
76168;DHT22;64927;48.214;16.378;2023-06-24T12:15:01;20.90;62.10
76168;DHT22;64927;48.214;16.378;2023-06-24T12:17:27;21.00;62.30
76168;DHT22;64927;48.214;16.378;2023-06-24T12:19:52;21.00;62.20
76168;DHT22;64927;48.214;16.378;2023-06-24T12:22:18;21.00;62.10
76168;DHT22;64927;48.214;16.378;2023-06-24T12:24:43;21.00;61.90
76168;DHT22;64927;48.214;16.378;2023-06-24T12:27:09;21.00;61.90
76168;DHT22;64927;48.214;16.378;2023-06-24T12:29:35;20.80;62.00
76168;DHT22;64927;48.214;16.378;2023-06-24T12:32:00;20.80;62.60
76168;DHT22;64927;48.214;16.378;2023-06-24T12:34:26;20.80;62.60
76168;DHT22;64927;48.214;16.378;2023-06-24T12:36:51;21.00;62.30
76168;DHT22;64927;48.214;16.378;2023-06-24T12:39:17;21.10;61.90
76168;DHT22;64927;48.214;16.378;2023-06-24T12:41:43;21.10;61.70
76168;DHT22;64927;48.214;16.378;2023-06-24T12:44:08;21.10;61.80
76168;DHT22;64927;48.214;16.378;2023-06-24T12:46:34;21.10;61.70
76168;DHT22;64927;48.214;16.378;2023-06-24T12:48:59;21.00;61.50
76168;DHT22;64927;48.214;16.378;2023-06-24T12:51:25;21.10;61.60
76168;DHT22;64927;48.214;16.378;2023-06-24T12:53:51;21.00;61.60
76168;DHT22;64927;48.214;16.378;2023-06-24T12:56:16;21.00;61.70
76168;DHT22;64927;48.214;16.378;2023-06-24T12:58:42;20.90;62.00
76168;DHT22;64927;48.214;16.378;2023-06-24T13:01:07;20.90;61.80
76168;DHT22;64927;48.214;16.378;2023-06-24T13:03:33;21.00;61.80
76168;DHT22;64927;48.214;16.378;2023-06-24T13:05:58;21.00;61.50
76168;DHT22;64927;48.214;16.378;2023-06-24T13:08:24;21.10;61.30
76168;DHT22;64927;48.214;16.378;2023-06-24T13:10:50;21.00;61.10
76168;DHT22;64927;48.214;16.378;2023-06-24T13:13:15;21.00;62.10
76168;DHT22;64927;48.214;16.378;2023-06-24T13:15:41;21.00;61.40
76168;DHT22;64927;48.214;16.378;2023-06-24T13:18:09;21.00;61.10
76168;DHT22;64927;48.214;16.378;2023-06-24T13:20:34;20.90;61.10
76168;DHT22;64927;48.214;16.378;2023-06-24T13:23:00;20.70;61.70
76168;DHT22;64927;48.214;16.378;2023-06-24T13:25:25;20.70;62.00
76168;DHT22;64927;48.214;16.378;2023-06-24T13:27:51;20.70;62.10
76168;DHT22;64927;48.214;16.378;2023-06-24T13:30:17;20.60;62.30
76168;DHT22;64927;48.214;16.378;2023-06-24T13:32:43;20.60;62.40
76168;DHT22;64927;48.214;16.378;2023-06-24T13:35:09;20.70;62.30
76168;DHT22;64927;48.214;16.378;2023-06-24T13:37:35;20.70;62.10
76168;DHT22;64927;48.214;16.378;2023-06-24T13:40:00;20.80;61.90
76168;DHT22;64927;48.214;16.378;2023-06-24T13:42:26;20.80;61.80
76168;DHT22;64927;48.214;16.378;2023-06-24T13:44:51;20.80;61.70
76168;DHT22;64927;48.214;16.378;2023-06-24T13:47:17;20.80;62.00
76168;DHT22;64927;48.214;16.378;2023-06-24T13:49:43;20.80;61.80
76168;DHT22;64927;48.214;16.378;2023-06-24T13:52:08;20.80;61.70
76168;DHT22;64927;48.214;16.378;2023-06-24T13:54:34;20.80;61.80
76168;DHT22;64927;48.214;16.378;2023-06-24T13:57:01;20.90;61.70
76168;DHT22;64927;48.214;16.378;2023-06-24T13:59:26;20.90;61.80
76168;DHT22;64927;48.214;16.378;2023-06-24T14:01:54;20.90;61.70
76168;DHT22;64927;48.214;16.378;2023-06-24T14:04:25;21.10;61.40
76168;DHT22;64927;48.214;16.378;2023-06-24T14:06:50;21.10;61.30
76168;DHT22;64927;48.214;16.378;2023-06-24T14:09:16;21.10;61.00
76168;DHT22;64927;48.214;16.378;2023-06-24T14:11:42;21.10;61.00
76168;DHT22;64927;48.214;16.378;2023-06-24T14:14:09;21.00;61.00
76168;DHT22;64927;48.214;16.378;2023-06-24T14:16:37;21.00;61.20
76168;DHT22;64927;48.214;16.378;2023-06-24T14:19:03;20.80;61.70
76168;DHT22;64927;48.214;16.378;2023-06-24T14:21:29;20.90;61.50
76168;DHT22;64927;48.214;16.378;2023-06-24T14:23:57;21.00;61.40
76168;DHT22;64927;48.214;16.378;2023-06-24T14:26:23;21.00;61.40
76168;DHT22;64927;48.214;16.378;2023-06-24T14:28:49;21.10;61.00
76168;DHT22;64927;48.214;16.378;2023-06-24T14:31:14;21.20;61.10
76168;DHT22;64927;48.214;16.378;2023-06-24T14:33:40;21.20;60.70
76168;DHT22;64927;48.214;16.378;2023-06-24T14:36:06;21.20;60.60
76168;DHT22;64927;48.214;16.378;2023-06-24T14:38:32;21.20;60.70
76168;DHT22;64927;48.214;16.378;2023-06-24T14:40:57;21.20;60.70
76168;DHT22;64927;48.214;16.378;2023-06-24T14:43:26;21.30;60.70
76168;DHT22;64927;48.214;16.378;2023-06-24T14:45:51;21.20;60.90
76168;DHT22;64927;48.214;16.378;2023-06-24T14:48:17;21.10;61.10
76168;DHT22;64927;48.214;16.378;2023-06-24T14:50:43;21.20;61.00
76168;DHT22;64927;48.214;16.378;2023-06-24T14:53:08;21.40;60.70
76168;DHT22;64927;48.214;16.378;2023-06-24T14:55:34;21.40;60.30
76168;DHT22;64927;48.214;16.378;2023-06-24T14:58:00;21.40;60.20
76168;DHT22;64927;48.214;16.378;2023-06-24T15:00:25;21.60;60.00
76168;DHT22;64927;48.214;16.378;2023-06-24T15:02:51;21.50;60.00
76168;DHT22;64927;48.214;16.378;2023-06-24T15:05:16;21.60;59.70
76168;DHT22;64927;48.214;16.378;2023-06-24T15:07:44;21.80;59.50
76168;DHT22;64927;48.214;16.378;2023-06-24T15:10:10;21.90;59.10
76168;DHT22;64927;48.214;16.378;2023-06-24T15:12:35;22.00;58.50
76168;DHT22;64927;48.214;16.378;2023-06-24T15:15:04;22.00;58.60
76168;DHT22;64927;48.214;16.378;2023-06-24T15:17:32;22.00;58.10
76168;DHT22;64927;48.214;16.378;2023-06-24T15:20:01;22.10;58.20
76168;DHT22;64927;48.214;16.378;2023-06-24T15:22:29;22.10;58.10
76168;DHT22;64927;48.214;16.378;2023-06-24T15:24:55;22.00;57.80